Time;durP1;ratioP1;P1;durP2;ratioP2;P2;SDS_P1;SDS_P2;PMS_P1;PMS_P2;Temp;Humidity;BMP_temperature;BMP_pressure;BME280_temperature;BME280_humidity;BME280_pressure;Samples;Min_cycle;Max_cycle;Signal;HPM_P1;HPM_P2
2022/01/13 00:01:42;;;;;;;8.80;5.50;;;1.40;99.90;;;2.07;100.00;100464.88;5092806;28;20558;-76
2022/01/13 00:04:15;;;;;;;10.63;5.73;;;1.40;99.90;;;2.07;100.00;100464.88;5094746;28;20493;-76
2022/01/13 00:06:44;;;;;;;9.23;5.20;;;1.40;99.90;;;2.09;100.00;100457.88;5095165;28;20462;-76
2022/01/13 00:09:14;;;;;;;9.17;5.60;;;1.50;99.90;;;2.12;100.00;100467.25;5093023;28;20484;-76
2022/01/13 00:11:47;;;;;;;7.70;4.67;;;1.50;99.90;;;2.13;100.00;100469.72;5094160;28;20555;-76
2022/01/13 00:14:37;;;;;;;10.17;5.20;;;1.50;99.90;;;2.09;100.00;100470.78;5093786;28;20518;-76
2022/01/13 00:17:25;;;;;;;6.23;5.07;;;1.50;99.90;;;2.06;100.00;100478.69;5093777;28;20475;-76
2022/01/13 00:20:09;;;;;;;9.97;5.43;;;1.40;99.90;;;2.06;100.00;100481.25;5094690;28;20997;-76
2022/01/13 00:25:48;;;;;;;11.97;6.67;;;1.40;99.90;;;2.11;100.00;100475.88;5093983;28;20518;-76
2022/01/13 00:28:20;;;;;;;8.50;5.90;;;1.50;99.90;;;2.11;100.00;100466.41;5092781;28;20945;-76
2022/01/13 00:30:55;;;;;;;8.33;5.30;;;1.50;99.90;;;2.07;100.00;100464.88;5093092;28;20489;-76
2022/01/13 00:33:26;;;;;;;9.43;5.47;;;1.40;99.90;;;2.10;100.00;100479.38;5093415;28;20970;-76
2022/01/13 00:36:00;;;;;;;8.20;5.03;;;1.40;99.90;;;2.11;100.00;100469.00;5092351;28;20458;-76
2022/01/13 00:38:31;;;;;;;11.53;5.77;;;1.40;99.90;;;2.09;100.00;100463.03;5096625;28;20457;-76
2022/01/13 00:40:59;;;;;;;8.67;5.80;;;1.40;99.90;;;2.10;100.00;100464.72;5095634;28;20490;-76
2022/01/13 00:43:28;;;;;;;10.23;6.80;;;1.40;99.90;;;2.12;100.00;100467.25;5096659;27;20494;-76
2022/01/13 00:45:59;;;;;;;10.30;7.20;;;1.40;99.90;;;2.14;100.00;100466.25;5094829;28;20957;-76
2022/01/13 00:48:28;;;;;;;10.70;5.93;;;1.40;99.90;;;2.10;100.00;100466.47;5091708;28;20544;-76
2022/01/13 00:50:57;;;;;;;11.03;6.70;;;1.40;99.90;;;2.07;100.00;100475.19;5093490;28;20473;-76
2022/01/13 00:53:26;;;;;;;7.37;5.47;;;1.40;99.90;;;2.08;100.00;100476.88;5093163;28;20537;-76
2022/01/13 00:56:01;;;;;;;8.77;5.50;;;1.40;99.90;;;2.09;100.00;100468.22;5093814;28;21034;-76
2022/01/13 00:58:34;;;;;;;11.47;6.87;;;1.50;99.90;;;2.07;100.00;100470.03;5097194;27;20820;-76
2022/01/13 01:01:07;;;;;;;10.60;6.50;;;1.50;99.90;;;2.05;100.00;100476.19;5094168;28;20489;-76
2022/01/13 01:03:38;;;;;;;8.73;6.30;;;1.40;99.90;;;2.01;100.00;100481.47;5095170;28;20516;-76
2022/01/13 01:06:08;;;;;;;11.67;6.53;;;1.40;99.90;;;2.03;100.00;100473.66;5098178;28;20825;-76
2022/01/13 01:08:38;;;;;;;12.60;6.43;;;1.40;99.90;;;2.05;100.00;100474.41;5098348;28;20501;-76
2022/01/13 01:11:09;;;;;;;11.00;6.60;;;1.40;99.90;;;2.03;100.00;100474.50;5095577;28;20463;-76
2022/01/13 01:13:39;;;;;;;9.10;5.87;;;1.40;99.90;;;2.07;100.00;100474.34;5098138;27;20458;-76
2022/01/13 01:16:12;;;;;;;12.63;6.37;;;1.40;99.90;;;2.01;100.00;100476.31;5098611;28;20483;-76
2022/01/13 01:18:52;;;;;;;13.27;6.33;;;1.30;99.90;;;2.01;100.00;100475.50;5099320;28;20457;-76
2022/01/13 01:21:48;;;;;;;13.43;7.03;;;1.40;99.90;;;1.99;100.00;100464.41;5096670;28;20581;-76
2022/01/13 01:24:43;;;;;;;9.80;6.17;;;1.40;99.90;;;1.94;100.00;100468.97;5091919;27;20561;-76
2022/01/13 01:27:18;;;;;;;10.97;6.20;;;1.40;99.90;;;1.98;100.00;100475.63;5097662;28;20460;-76
2022/01/13 01:29:56;;;;;;;9.87;6.70;;;1.30;99.90;;;1.97;100.00;100473.97;5097016;28;20938;-76
2022/01/13 01:32:29;;;;;;;20.53;6.27;;;1.40;99.90;;;1.99;100.00;100479.88;5095692;28;20457;-76
2022/01/13 01:35:02;;;;;;;11.87;6.77;;;1.40;99.90;;;1.96;100.00;100477.44;5096457;28;20889;-76
2022/01/13 01:37:33;;;;;;;9.10;6.77;;;1.30;99.90;;;2.00;100.00;100476.41;5096246;27;20474;-76
2022/01/13 01:40:03;;;;;;;12.00;6.60;;;1.40;99.90;;;1.98;100.00;100479.03;5094675;28;20494;-76
2022/01/13 01:42:37;;;;;;;10.90;5.93;;;1.40;99.90;;;1.98;100.00;100478.19;5098606;28;21111;-76
2022/01/13 01:45:12;;;;;;;13.60;8.10;;;1.30;99.90;;;1.98;100.00;100479.03;5094500;28;20517;-76
2022/01/13 01:47:44;;;;;;;9.03;6.00;;;1.20;99.90;;;2.03;100.00;100484.00;5096197;27;20458;-76
2022/01/13 01:50:19;;;;;;;12.20;7.30;;;1.30;99.90;;;1.99;100.00;100483.31;5095738;28;20451;-76
2022/01/13 01:52:53;;;;;;;11.70;7.43;;;1.30;99.90;;;1.93;100.00;100482.75;5095289;28;20486;-77
2022/01/13 01:55:23;;;;;;;10.80;6.73;;;1.20;99.90;;;1.94;100.00;100487.81;5096737;27;20955;-76
2022/01/13 01:57:54;;;;;;;12.90;7.37;;;1.20;99.90;;;1.91;100.00;100482.81;5095504;28;20474;-76
2022/01/13 02:00:27;;;;;;;10.33;6.37;;;1.20;99.90;;;1.90;100.00;100481.16;5096004;28;20732;-76
2022/01/13 02:02:58;;;;;;;13.17;7.30;;;1.30;99.90;;;1.92;100.00;100491.41;5095942;28;20465;-76
2022/01/13 02:05:29;;;;;;;13.60;7.40;;;1.20;99.90;;;1.92;100.00;100487.06;5095082;28;20464;-76
2022/01/13 02:07:59;;;;;;;13.33;7.43;;;1.20;99.90;;;1.94;100.00;100487.81;5093991;28;20554;-76
2022/01/13 02:10:30;;;;;;;22.93;8.23;;;1.30;99.90;;;1.93;100.00;100485.34;5095213;28;20459;-76
2022/01/13 02:13:04;;;;;;;13.30;7.63;;;1.30;99.90;;;1.92;100.00;100481.06;5097619;28;20467;-76
2022/01/13 02:15:37;;;;;;;13.97;7.63;;;1.30;99.90;;;1.91;100.00;100471.66;5094500;28;20492;-77
2022/01/13 02:18:08;;;;;;;14.00;7.60;;;1.30;99.90;;;1.88;100.00;100482.13;5091385;28;20479;-76
2022/01/13 02:20:54;;;;;;;15.20;7.70;;;1.30;99.90;;;1.79;100.00;100472.25;5094099;27;20510;-76
2022/01/13 02:23:36;;;;;;;14.93;7.13;;;1.10;99.90;;;1.86;100.00;100481.38;5093430;28;21062;-76
2022/01/13 02:26:09;;;;;;;14.70;7.67;;;1.10;99.90;;;1.91;100.00;100474.25;5095077;27;20954;-76
2022/01/13 02:28:39;;;;;;;20.30;9.00;;;1.20;99.90;;;1.89;100.00;100476.91;5095396;28;20458;-76
2022/01/13 02:31:10;;;;;;;17.20;7.70;;;1.20;99.90;;;1.88;100.00;100469.22;5093835;28;20584;-76
2022/01/13 02:33:41;;;;;;;17.20;8.10;;;1.20;99.90;;;1.85;100.00;100461.63;5094506;28;21055;-76
2022/01/13 02:36:12;;;;;;;15.20;7.67;;;1.20;99.90;;;1.84;100.00;100460.00;5093641;28;20504;-76
2022/01/13 02:38:42;;;;;;;13.97;7.83;;;1.10;99.90;;;1.81;100.00;100463.53;5094329;28;20477;-76
2022/01/13 02:41:12;;;;;;;14.43;7.90;;;1.20;99.90;;;1.84;100.00;100458.22;5092418;28;20529;-76
2022/01/13 02:43:43;;;;;;;17.23;8.63;;;1.20;99.90;;;1.87;100.00;100454.69;5094112;27;20491;-76
2022/01/13 02:46:33;;;;;;;12.80;7.87;;;1.20;99.90;;;1.81;100.00;100457.53;5094770;28;20488;-76
2022/01/13 02:49:07;;;;;;;18.87;8.10;;;1.20;99.90;;;1.79;100.00;100454.19;5093943;28;20469;-76
2022/01/13 02:51:39;;;;;;;19.43;9.63;;;1.10;99.90;;;1.82;100.00;100460.03;5096033;28;21039;-76
2022/01/13 02:54:09;;;;;;;17.53;7.13;;;1.10;99.90;;;1.87;100.00;100465.84;5103458;28;20547;-77
2022/01/13 02:56:42;;;;;;;13.20;7.57;;;1.30;99.90;;;1.85;100.00;100453.91;5096821;28;20681;-76
2022/01/13 02:59:12;;;;;;;15.37;7.27;;;1.20;99.90;;;1.82;100.00;100447.16;5096637;28;20449;-76
2022/01/13 03:01:42;;;;;;;15.80;7.77;;;1.20;99.90;;;1.83;100.00;100450.56;5095159;28;20978;-76
2022/01/13 03:04:12;;;;;;;15.93;7.57;;;1.20;99.90;;;1.81;100.00;100453.22;5094194;28;21074;-76
2022/01/13 03:06:43;;;;;;;14.17;7.63;;;1.30;99.90;;;1.78;100.00;100453.34;5092680;28;20458;-76
2022/01/13 03:09:15;;;;;;;14.30;7.60;;;1.20;99.90;;;1.75;100.00;100447.50;5095485;28;20467;-76
2022/01/13 03:11:46;;;;;;;22.47;7.37;;;1.10;99.90;;;1.78;100.00;100460.25;5094692;28;20470;-76
2022/01/13 03:14:16;;;;;;;12.23;7.80;;;1.20;99.90;;;1.77;100.00;100458.59;5095905;28;21069;-76
2022/01/13 03:16:46;;;;;;;22.30;8.47;;;1.20;99.90;;;1.74;100.00;100462.13;5091199;28;20496;-76
2022/01/13 03:19:15;;;;;;;17.83;7.50;;;1.20;99.90;;;1.72;100.00;100448.50;5094512;27;20467;-76
2022/01/13 03:21:47;;;;;;;15.37;8.43;;;1.20;99.90;;;1.72;100.00;100452.81;5095489;28;20997;-76
2022/01/13 03:24:17;;;;;;;14.57;7.87;;;1.10;99.90;;;1.72;100.00;100457.97;5094880;28;20471;-76
2022/01/13 03:26:49;;;;;;;10.50;6.30;;;1.10;99.90;;;1.74;100.00;100461.31;5089609;28;20982;-76
2022/01/13 03:29:21;;;;;;;12.10;7.90;;;1.10;99.90;;;1.74;100.00;100462.13;5093567;28;20830;-76
2022/01/13 03:31:51;;;;;;;11.77;7.80;;;1.10;99.90;;;1.77;100.00;100456.03;5089476;28;20496;-76
2022/01/13 03:34:21;;;;;;;19.00;9.07;;;1.00;99.90;;;1.78;100.00;100457.69;5089967;28;20567;-76
2022/01/13 03:36:52;;;;;;;17.23;8.43;;;1.20;99.90;;;1.78;100.00;100460.25;5090830;28;20872;-76
2022/01/13 03:39:22;;;;;;;16.30;8.90;;;1.10;99.90;;;1.77;100.00;100450.88;5092155;28;20468;-76
2022/01/13 03:41:51;;;;;;;15.57;8.40;;;1.00;99.90;;;1.78;100.00;100458.50;5090123;28;20574;-76
2022/01/13 03:44:28;;;;;;;16.93;8.00;;;1.10;99.90;;;1.73;100.00;100464.81;5093201;28;20494;-76
2022/01/13 03:47:02;;;;;;;14.13;7.57;;;1.00;99.90;;;1.67;100.00;100459.91;5091081;28;20464;-76
2022/01/13 03:49:32;;;;;;;15.90;7.33;;;1.00;99.90;;;1.71;100.00;100476.91;5093458;28;20894;-76
2022/01/13 03:52:56;;;;;;;14.23;8.10;;;1.00;99.90;;;1.69;100.00;100481.31;5092276;28;20534;-76
2022/01/13 03:57:01;;;;;;;9.87;6.87;;;1.00;99.90;;;1.58;100.00;100478.41;5083961;28;20492;-76
2022/01/13 04:00:59;;;;;;;13.63;7.47;;;1.10;99.90;;;1.53;100.00;100479.44;5090364;28;20555;-76
2022/01/13 04:03:29;;;;;;;17.23;7.93;;;1.00;99.90;;;1.52;100.00;100490.69;5090972;28;20481;-76
2022/01/13 04:06:09;;;;;;;12.73;7.50;;;1.00;99.90;;;1.57;100.00;100487.03;5091318;28;20601;-76
2022/01/13 04:08:38;;;;;;;15.87;8.30;;;1.00;99.90;;;1.60;100.00;100484.34;5090706;28;20466;-76
2022/01/13 04:11:25;;;;;;;15.30;8.60;;;1.00;99.90;;;1.60;100.00;100484.34;5091908;28;20500;-76
2022/01/13 04:13:57;;;;;;;14.23;8.83;;;1.00;99.90;;;1.57;100.00;100480.13;5091701;28;21184;-76
2022/01/13 04:16:33;;;;;;;16.67;8.70;;;1.10;99.90;;;1.58;100.00;100484.41;5091339;28;20516;-76
2022/01/13 04:19:07;;;;;;;14.40;8.60;;;1.10;99.90;;;1.60;100.00;100480.00;5092739;28;20558;-76
2022/01/13 04:21:39;;;;;;;15.83;8.17;;;1.10;99.90;;;1.59;100.00;100482.66;5092729;28;20491;-76
2022/01/13 04:24:13;;;;;;;23.30;9.27;;;1.00;99.90;;;1.58;100.00;100480.97;5090814;28;20456;-76
2022/01/13 04:26:44;;;;;;;16.40;7.40;;;0.90;99.90;;;1.61;100.00;100484.25;5092383;28;20901;-76
2022/01/13 04:29:27;;;;;;;19.40;8.80;;;1.00;99.90;;;1.55;100.00;100470.81;5092522;28;20470;-76
2022/01/13 04:31:58;;;;;;;15.33;8.43;;;1.10;99.90;;;1.51;100.00;100476.09;5088248;28;21093;-76
2022/01/13 04:34:28;;;;;;;18.53;8.33;;;1.00;99.90;;;1.51;100.00;100475.28;5091301;28;20462;-76
2022/01/13 04:37:00;;;;;;;14.03;7.90;;;1.10;99.90;;;1.42;100.00;100466.19;5088646;28;20476;-76
2022/01/13 04:39:32;;;;;;;19.10;8.03;;;1.00;99.90;;;1.43;100.00;100467.88;5090751;28;20974;-76
2022/01/13 04:42:03;;;;;;;15.43;8.17;;;0.90;99.90;;;1.46;100.00;100459.16;5088961;28;20487;-76
2022/01/13 04:44:33;;;;;;;14.03;8.10;;;0.80;99.90;;;1.44;100.00;100464.41;5092268;28;20470;-75
2022/01/13 04:47:07;;;;;;;16.03;7.50;;;0.90;99.90;;;1.42;100.00;100461.03;5089692;28;20490;-76
2022/01/13 04:49:36;;;;;;;13.33;7.83;;;0.90;99.90;;;1.41;100.00;100461.97;5092531;28;20486;-76
2022/01/13 04:52:06;;;;;;;18.00;8.80;;;0.80;99.90;;;1.38;100.00;100459.53;5089760;28;20463;-76
2022/01/13 04:54:36;;;;;;;18.17;7.83;;;0.80;99.90;;;1.37;100.00;100464.75;5088422;28;20936;-76
2022/01/13 04:57:14;;;;;;;16.77;7.47;;;0.80;99.90;;;1.40;100.00;100462.88;5090451;28;20475;-76
2022/01/13 04:59:44;;;;;;;15.53;7.73;;;0.80;99.90;;;1.40;100.00;100452.56;5090484;28;20457;-76
2022/01/13 05:02:17;;;;;;;14.00;7.63;;;0.70;99.90;;;1.40;100.00;100460.28;5090229;28;20582;-76
2022/01/13 05:04:46;;;;;;;14.57;7.67;;;0.70;99.90;;;1.36;100.00;100463.91;5090242;28;20563;-76
2022/01/13 05:07:17;;;;;;;13.90;7.63;;;0.80;99.90;;;1.39;100.00;100455.19;5090071;28;20991;-76
2022/01/13 05:09:47;;;;;;;18.97;8.23;;;0.80;99.90;;;1.41;100.00;100458.56;5089249;28;20462;-76
2022/01/13 05:12:17;;;;;;;14.90;8.60;;;0.80;99.90;;;1.38;100.00;100446.66;5090518;28;20463;-76
2022/01/13 05:14:53;;;;;;;17.13;7.70;;;0.80;99.90;;;1.39;100.00;100452.63;5089107;28;20522;-76
2022/01/13 05:17:48;;;;;;;14.80;7.07;;;0.80;99.90;;;1.34;100.00;100441.69;5089272;28;20460;-76
2022/01/13 05:20:20;;;;;;;16.47;7.70;;;0.70;99.90;;;1.37;100.00;100439.81;5092495;28;20517;-75
2022/01/13 05:22:50;;;;;;;15.40;7.57;;;0.80;99.90;;;1.36;100.00;100445.03;5095325;28;20472;-76
2022/01/13 05:25:22;;;;;;;13.23;7.00;;;0.80;99.90;;;1.32;100.00;100449.47;5092070;28;20896;-76
2022/01/13 05:27:53;;;;;;;17.67;8.47;;;0.70;99.90;;;1.31;100.00;100453.00;5092850;28;20471;-76
2022/01/13 05:30:23;;;;;;;14.40;7.63;;;0.60;99.90;;;1.31;100.00;100457.31;5092311;28;20471;-76
2022/01/13 05:32:56;;;;;;;11.27;6.10;;;0.70;99.90;;;1.30;100.00;100446.16;5093060;28;20959;-76
2022/01/13 05:35:27;;;;;;;12.30;7.27;;;0.60;99.90;;;1.30;100.00;100440.16;5090172;28;20496;-76
2022/01/13 05:37:56;;;;;;;24.80;7.90;;;0.60;99.90;;;1.27;100.00;100436.00;5092575;28;20468;-76
2022/01/13 05:40:26;;;;;;;15.47;7.60;;;0.60;99.90;;;1.26;100.00;100444.63;5093850;28;20467;-76
2022/01/13 05:42:56;;;;;;;16.13;8.13;;;0.70;99.90;;;1.22;100.00;100439.66;5096430;28;20481;-76
2022/01/13 05:45:29;;;;;;;12.97;8.07;;;0.70;99.90;;;1.20;100.00;100437.16;5090530;27;20466;-76
2022/01/13 05:48:04;;;;;;;13.23;7.83;;;0.60;99.90;;;1.22;100.00;100439.66;5092240;28;20495;-76
2022/01/13 05:50:33;;;;;;;14.27;7.80;;;0.50;99.90;;;1.23;100.00;100439.59;5092835;28;20553;-76
2022/01/13 05:53:03;;;;;;;13.67;7.67;;;0.60;99.90;;;1.25;100.00;100430.06;5092340;28;21012;-76
2022/01/13 05:55:34;;;;;;;12.17;6.23;;;0.60;99.90;;;1.24;100.00;100433.56;5093852;28;20535;-76
2022/01/13 05:58:04;;;;;;;12.93;6.97;;;0.60;99.90;;;1.20;100.00;100426.88;5093994;28;21313;-76
2022/01/13 06:00:33;;;;;;;13.77;7.47;;;0.50;99.90;;;1.23;100.00;100439.59;5092961;28;20489;-76
2022/01/13 06:03:04;;;;;;;16.07;6.13;;;0.60;99.90;;;1.19;100.00;100439.81;5094097;28;20516;-76
2022/01/13 06:05:35;;;;;;;11.27;6.10;;;0.50;99.90;;;1.20;100.00;100451.78;5093726;28;20466;-76
2022/01/13 06:08:04;;;;;;;13.40;7.03;;;0.50;99.90;;;1.18;100.00;100451.84;5091562;28;20453;-76
2022/01/13 06:10:34;;;;;;;12.50;6.20;;;0.50;99.90;;;1.19;100.00;100453.53;5090935;27;20550;-76
2022/01/13 06:13:03;;;;;;;12.50;6.07;;;0.50;99.90;;;1.15;100.00;100456.28;5091887;28;20459;-76
2022/01/13 06:15:36;;;;;;;11.47;6.60;;;0.50;99.90;;;1.08;100.00;100460.06;5089599;28;20585;-76
2022/01/13 06:18:13;;;;;;;11.77;6.20;;;0.40;99.90;;;1.08;100.00;100462.66;5090331;28;20521;-76
2022/01/13 06:20:44;;;;;;;9.47;6.63;;;0.40;99.90;;;1.08;100.00;100460.88;5093885;27;20516;-76
2022/01/13 06:23:15;;;;;;;14.17;6.93;;;0.30;99.90;;;1.07;100.00;100468.69;5093606;28;20539;-76
2022/01/13 06:25:45;;;;;;;15.50;7.30;;;0.30;99.90;;;1.07;100.00;100460.97;5092602;27;20565;-76
2022/01/13 06:28:14;;;;;;;13.27;6.77;;;0.40;99.90;;;1.00;100.00;100466.41;5093069;27;20563;-76
2022/01/13 06:30:45;;;;;;;11.20;6.80;;;0.40;99.90;;;0.92;100.00;100470.19;5090575;28;20988;-76
2022/01/13 06:33:17;;;;;;;13.93;6.40;;;0.30;99.90;;;0.89;100.00;100476.31;5091835;28;20468;-75
2022/01/13 06:35:46;;;;;;;10.60;6.40;;;0.30;99.90;;;0.84;100.00;100475.66;5093411;28;20556;-76
2022/01/13 06:38:16;;;;;;;11.20;5.93;;;0.30;99.90;;;0.81;100.00;100474.97;5091819;28;21143;-76
2022/01/13 06:40:45;;;;;;;14.13;7.40;;;0.40;99.90;;;0.77;100.00;100478.56;5093575;28;20895;-76
2022/01/13 06:43:15;;;;;;;10.77;6.17;;;0.30;99.90;;;0.74;100.00;100481.28;5092360;28;21169;-76
2022/01/13 06:45:44;;;;;;;13.23;6.40;;;0.30;99.90;;;0.73;100.00;100487.34;5089032;28;20524;-76
2022/01/13 06:48:15;;;;;;;9.80;5.97;;;0.30;99.90;;;0.68;100.00;100482.38;5090503;27;20466;-74
2022/01/13 06:50:45;;;;;;;19.90;10.17;;;0.20;99.90;;;0.70;100.00;100485.72;5094218;28;20528;-76
2022/01/13 06:53:15;;;;;;;11.33;6.80;;;0.20;99.90;;;0.67;100.00;100485.84;5086954;28;20853;-76
2022/01/13 06:55:46;;;;;;;8.53;5.30;;;0.20;99.90;;;0.72;100.00;100493.38;5089358;28;21071;-76
2022/01/13 06:58:15;;;;;;;10.20;6.10;;;0.10;99.90;;;0.73;100.00;100490.72;5080035;28;21156;-76
2022/01/13 07:00:46;;;;;;;12.30;5.37;;;0.00;99.90;;;0.70;100.00;100485.72;5089013;28;20521;-74
2022/01/13 07:03:19;;;;;;;8.33;5.47;;;0.10;99.90;;;0.69;100.00;100485.81;5090129;28;20487;-76
2022/01/13 07:05:50;;;;;;;8.90;5.00;;;0.10;99.90;;;0.68;100.00;100494.41;5093836;28;20508;-78
2022/01/13 07:08:21;;;;;;;13.90;6.10;;;0.10;99.90;;;0.70;100.00;100495.19;5094820;28;20456;-76
2022/01/13 07:10:51;;;;;;;8.63;5.30;;;0.10;99.90;;;0.68;100.00;100500.41;5092505;28;20484;-76
2022/01/13 07:13:21;;;;;;;11.47;6.40;;;0.20;99.90;;;0.66;100.00;100494.47;5091337;28;20816;-76
2022/01/13 07:15:51;;;;;;;9.03;5.47;;;-0.10;99.90;;;0.68;100.00;100502.97;5094032;28;20485;-76
2022/01/13 07:18:23;;;;;;;9.43;5.87;;;0.00;99.90;;;0.68;100.00;100513.28;5097583;28;20500;-76
2022/01/13 07:20:52;;;;;;;10.43;5.40;;;0.00;99.90;;;0.66;100.00;100516.81;5094795;28;20551;-76
2022/01/13 07:23:21;;;;;;;10.60;5.97;;;-0.10;99.90;;;0.66;100.00;100519.41;5092818;28;20480;-76
2022/01/13 07:25:51;;;;;;;11.33;5.80;;;0.00;99.90;;;0.58;100.00;100511.16;5096523;28;20454;-76
2022/01/13 07:28:20;;;;;;;11.87;6.70;;;-0.10;99.90;;;0.59;100.00;100510.25;5096552;28;20465;-76
2022/01/13 07:30:49;;;;;;;9.70;5.67;;;-0.10;99.90;;;0.58;100.00;100517.13;5090915;27;20525;-76
2022/01/13 07:33:20;;;;;;;10.00;5.50;;;0.00;99.90;;;0.56;100.00;100515.50;5092753;28;20968;-76
2022/01/13 07:35:51;;;;;;;11.30;5.63;;;-0.10;99.90;;;0.59;100.00;100523.94;5089032;28;20456;-76
2022/01/13 07:38:20;;;;;;;11.33;6.93;;;0.00;99.90;;;0.55;100.00;100519.84;5095872;28;20443;-76
2022/01/13 07:40:50;;;;;;;11.87;6.23;;;0.00;99.90;;;0.53;100.00;100524.19;5097292;28;20496;-76
2022/01/13 07:43:23;;;;;;;11.37;6.10;;;0.10;99.90;;;0.54;100.00;100519.88;5095745;28;20491;-76
2022/01/13 07:45:54;;;;;;;12.63;5.90;;;0.10;99.90;;;0.52;100.00;100522.53;5095282;28;20456;-76
2022/01/13 07:48:24;;;;;;;11.57;6.30;;;-0.10;99.90;;;0.54;100.00;100523.31;5095933;28;20872;-76
2022/01/13 07:50:55;;;;;;;10.80;6.40;;;0.10;99.90;;;0.49;100.00;100515.75;5096393;28;20464;-76
2022/01/13 07:53:25;;;;;;;9.70;5.53;;;0.10;99.90;;;0.45;100.00;100516.78;5095586;28;20549;-76
2022/01/13 07:55:56;;;;;;;12.17;6.67;;;0.20;99.90;;;0.43;100.00;100517.75;5095833;28;20456;-76
2022/01/13 07:58:25;;;;;;;12.03;6.40;;;-0.20;99.90;;;0.44;100.00;100514.28;5093828;28;20834;-76
2022/01/13 08:00:54;;;;;;;8.10;5.47;;;-0.10;99.90;;;0.50;100.00;100525.16;5095681;28;20974;-76
2022/01/13 08:03:24;;;;;;;10.10;6.07;;;-0.10;99.90;;;0.47;100.00;100519.31;5093172;28;20571;-76
2022/01/13 08:05:53;;;;;;;8.03;4.83;;;-0.10;99.90;;;0.49;100.00;100525.22;5095017;28;20599;-77
2022/01/13 08:08:27;;;;;;;10.37;5.70;;;-0.10;99.90;;;0.48;100.00;100521.84;5096006;28;20469;-77
2022/01/13 08:10:58;;;;;;;9.80;5.70;;;-0.20;99.90;;;0.52;100.00;100519.13;5092625;28;20567;-77
2022/01/13 08:13:28;;;;;;;17.90;9.00;;;-0.20;99.90;;;0.52;100.00;100518.22;5090708;28;20456;-76
2022/01/13 08:16:01;;;;;;;12.50;6.17;;;-0.20;99.90;;;0.54;100.00;100514.75;5094956;28;20865;-76
2022/01/13 08:21:18;;;;;;;8.03;5.40;;;-0.20;99.90;;;0.54;100.00;100509.59;5092446;28;21028;-77
2022/01/13 08:23:50;;;;;;;9.80;5.97;;;-0.20;99.90;;;0.56;100.00;100511.19;5089231;28;20565;-76
2022/01/13 08:26:21;;;;;;;7.30;4.47;;;-0.10;99.90;;;0.55;100.00;100511.28;5088529;28;20469;-77
2022/01/13 08:28:51;;;;;;;11.20;4.63;;;-0.10;99.90;;;0.56;100.00;100512.94;5090854;28;20511;-77
2022/01/13 08:31:21;;;;;;;8.50;5.33;;;-0.10;99.90;;;0.56;100.00;100507.78;5089171;28;20473;-76
2022/01/13 08:33:50;;;;;;;10.40;5.00;;;-0.10;99.90;;;0.57;100.00;100512.88;5090142;28;20473;-77
2022/01/13 08:36:20;;;;;;;10.20;5.47;;;-0.10;99.90;;;0.60;100.00;100519.63;5089285;28;20499;-77
2022/01/13 08:38:51;;;;;;;8.73;5.40;;;-0.10;99.90;;;0.61;100.00;100519.59;5088456;28;20544;-77
2022/01/13 08:41:22;;;;;;;9.90;4.90;;;-0.10;99.90;;;0.60;100.00;100520.47;5088815;28;20830;-77
2022/01/13 08:43:53;;;;;;;8.90;5.27;;;-0.10;99.90;;;0.60;100.00;100520.47;5089422;28;20501;-77
2022/01/13 08:46:24;;;;;;;9.87;5.40;;;-0.20;99.90;;;0.59;100.00;100517.97;5090978;28;20553;-77
2022/01/13 08:48:54;;;;;;;11.77;5.47;;;-0.10;99.90;;;0.59;100.00;100521.38;5090350;28;20830;-77
2022/01/13 08:51:24;;;;;;;10.03;5.30;;;-0.10;99.90;;;0.56;100.00;100518.91;5091010;28;20468;-76
2022/01/13 08:53:54;;;;;;;8.73;4.63;;;-0.20;99.90;;;0.54;100.00;100517.31;5074761;28;20892;-81
2022/01/13 08:56:25;;;;;;;9.00;5.07;;;-0.20;99.90;;;0.54;100.00;100517.31;5090831;28;20822;-77
2022/01/13 08:58:54;;;;;;;9.67;5.00;;;-0.30;99.90;;;0.54;100.00;100510.44;5094881;28;20459;-77
2022/01/13 09:01:23;;;;;;;12.83;6.30;;;-0.20;99.90;;;0.53;100.00;100513.91;5091065;27;20471;-77
2022/01/13 09:03:53;;;;;;;9.17;5.03;;;-0.20;99.90;;;0.54;100.00;100514.75;5094671;27;20520;-77
2022/01/13 09:06:23;;;;;;;11.10;6.13;;;-0.20;99.90;;;0.53;100.00;100519.03;5090680;28;20458;-77
2022/01/13 09:08:54;;;;;;;11.90;6.80;;;-0.20;99.90;;;0.57;100.00;100519.75;5091327;28;20466;-76
2022/01/13 09:11:25;;;;;;;10.80;5.87;;;-0.20;99.90;;;0.64;100.00;100511.72;5091574;28;20977;-77
2022/01/13 09:13:57;;;;;;;13.73;6.97;;;-0.10;99.90;;;0.70;100.00;100520.91;5094492;27;20553;-77
2022/01/13 09:16:30;;;;;;;11.10;6.30;;;0.00;99.90;;;0.74;100.00;100514.75;5094171;28;20752;-76
2022/01/13 09:19:08;;;;;;;12.03;6.57;;;0.00;99.90;;;0.77;100.00;100517.19;5092558;28;20466;-77
2022/01/13 09:21:43;;;;;;;15.13;6.57;;;0.00;99.90;;;0.77;100.00;100505.16;5094224;27;20485;-77
2022/01/13 09:24:16;;;;;;;10.90;6.50;;;0.10;99.90;;;0.81;100.00;100513.59;5094151;28;20524;-77
2022/01/13 09:26:47;;;;;;;12.37;6.40;;;0.10;99.90;;;0.82;100.00;100520.41;5093593;28;20590;-77
2022/01/13 09:29:17;;;;;;;11.00;5.70;;;0.10;99.90;;;0.80;100.00;100517.09;5093059;28;20466;-77
2022/01/13 09:31:47;;;;;;;14.00;6.47;;;0.10;99.90;;;0.79;100.00;100505.09;5092312;28;20467;-76
2022/01/13 09:34:17;;;;;;;12.10;6.10;;;0.10;99.90;;;0.81;100.00;100511.00;5094176;28;20986;-76
2022/01/13 09:36:48;;;;;;;12.93;6.50;;;0.10;99.90;;;0.84;100.00;100513.47;5095729;28;20823;-77
2022/01/13 09:39:19;;;;;;;10.30;5.93;;;0.10;99.90;;;0.85;100.00;100517.72;5091971;28;20458;-76
2022/01/13 09:41:49;;;;;;;12.97;6.67;;;0.10;99.90;;;0.84;100.00;100528.91;5097630;28;20465;-77
2022/01/13 09:44:20;;;;;;;13.90;7.10;;;0.10;99.90;;;0.84;100.00;100524.59;5096259;28;20490;-77
2022/01/13 09:46:49;;;;;;;12.40;6.97;;;0.10;99.90;;;0.84;100.00;100518.59;5092078;28;21058;-77
2022/01/13 09:49:19;;;;;;;11.17;6.30;;;0.10;99.90;;;0.85;100.00;100521.13;5092392;28;20464;-77
2022/01/13 09:51:48;;;;;;;13.70;7.03;;;0.10;99.90;;;0.85;100.00;100521.13;5092297;27;20580;-77
2022/01/13 09:54:20;;;;;;;11.60;6.40;;;0.10;99.90;;;0.85;100.00;100515.97;5095850;28;20490;-77
2022/01/13 09:56:50;;;;;;;10.30;5.90;;;0.10;99.90;;;0.87;100.00;100521.88;5096839;28;20465;-77
2022/01/13 09:59:20;;;;;;;13.27;7.20;;;0.10;99.90;;;0.89;100.00;100514.13;5089873;28;20514;-77
2022/01/13 10:01:50;;;;;;;11.40;5.90;;;0.10;99.90;;;0.91;100.00;100513.13;5094215;28;20466;-77
2022/01/13 10:04:20;;;;;;;9.50;5.17;;;0.10;99.90;;;0.93;100.00;100513.09;5098136;28;20538;-77
2022/01/13 10:06:50;;;;;;;10.70;5.50;;;0.20;99.90;;;0.94;100.00;100514.72;5093110;28;20520;-81
2022/01/13 10:09:23;;;;;;;12.20;5.63;;;0.30;99.90;;;0.95;100.00;100512.09;5094173;28;20508;-77
2022/01/13 10:11:55;;;;;;;12.00;5.73;;;0.30;99.90;;;0.98;100.00;100505.97;5093192;28;20458;-77
2022/01/13 10:17:17;;;;;;;12.27;5.80;;;0.30;99.90;;;1.02;100.00;100502.38;5090879;28;20499;-77
2022/01/13 10:19:50;;;;;;;9.90;5.93;;;0.30;99.90;;;1.03;100.00;100511.78;5091984;28;21638;-77
2022/01/13 10:22:24;;;;;;;10.93;5.40;;;0.30;99.90;;;1.04;100.00;100504.91;5094914;28;21062;-77
2022/01/13 10:24:58;;;;;;;11.27;5.33;;;0.30;99.90;;;1.08;100.00;100507.25;5094848;28;20478;-77
2022/01/13 10:27:31;;;;;;;8.83;5.70;;;0.40;99.90;;;1.10;100.00;100510.63;5093010;28;20617;-77
2022/01/13 10:30:14;;;;;;;9.43;5.50;;;0.40;99.90;;;1.14;100.00;100504.44;5093855;28;20466;-77
2022/01/13 10:32:45;;;;;;;7.87;5.10;;;0.40;99.90;;;1.20;100.00;100503.31;5092700;28;21068;-77
2022/01/13 10:35:17;;;;;;;12.60;6.03;;;0.50;99.90;;;1.21;100.00;100492.13;5091106;28;20542;-77
2022/01/13 10:37:53;;;;;;;13.80;6.20;;;0.50;99.90;;;1.20;100.00;100493.84;5091210;28;20466;-77
2022/01/13 10:40:29;;;;;;;9.77;5.47;;;0.50;99.90;;;1.21;100.00;100492.13;5094350;28;20568;-77
2022/01/13 10:43:07;;;;;;;8.83;5.17;;;0.50;99.90;;;1.21;100.00;100489.53;5091944;28;20471;-77
2022/01/13 10:45:41;;;;;;;13.47;6.10;;;0.50;99.90;;;1.23;100.00;100488.56;5091041;28;20585;-77